KSCX

Scott Municipal Airport

Oneida, Tennessee, USA
METAR KSCX 162235Z AUTO 26006KT 2SM BR OVC004 06/06 A3014 RMK A01
Observed Flight Rules
Dec-16 @ 22:35 UTC (25 minutes ago) Instrument Flight Rules
Wind Visibility Clouds Conditions
260° at 6 knots 2 miles
  • Overcast at 400' AGL
  • Mist
Temperatures Readings
Current 6°C / 43°F
Dewpoint 6°C / 43°F
Humidity 100%
Altimeter 30.14" Hg
Pressure 1021 hPa
Elevation 471
METAR KSCX 162235Z AUTO 26006KT 2SM BR OVC004 06/06 A3014 RMK A01
Observed Flight Rules
Dec-16 @ 22:35 UTC
(25 minutes ago)
LIFR
Wind Visibility
260° at 6 knots 2 miles
Clouds
  • Overcast at 400' AGL
Conditions
  • Mist
Temperature Dewpoint
6°C / 43°F 6°C / 43°F
Humidity Altimeter Pressure
100% 30.14" Hg 1021 hPa